Time;durP1;ratioP1;P1;durP2;ratioP2;P2;SDS_P1;SDS_P2;PMS_P1;PMS_P2;Temp;Humidity;BMP_temperature;BMP_pressure;BME280_temperature;BME280_humidity;BME280_pressure;Samples;Min_cycle;Max_cycle;Signal;HPM_P1;HPM_P2
2022/05/01 00:00:50;;;;;;;2.20;1.90;;;11.10;98.00;;;;;;5074072;28;20460;-65
2022/05/01 00:05:59;;;;;;;3.60;2.50;;;11.00;98.00;;;;;;5074192;28;20480;-65
2022/05/01 00:08:26;;;;;;;2.77;2.23;;;10.90;98.00;;;;;;5073978;28;20477;-65
2022/05/01 00:10:53;;;;;;;1.60;1.47;;;10.90;98.00;;;;;;5073753;28;20461;-65
2022/05/01 00:13:22;;;;;;;1.90;1.80;;;10.90;98.00;;;;;;5073904;28;20452;-65
2022/05/01 00:15:49;;;;;;;2.50;1.73;;;11.00;98.00;;;;;;5074003;28;20488;-65
2022/05/01 00:18:16;;;;;;;2.10;1.83;;;11.00;98.00;;;;;;5073792;28;20476;-65
2022/05/01 00:20:43;;;;;;;2.30;2.10;;;11.00;98.00;;;;;;5074007;28;21048;-65
2022/05/01 00:23:10;;;;;;;2.50;2.00;;;11.00;98.00;;;;;;5073832;28;20461;-65
2022/05/01 00:25:40;;;;;;;2.70;2.30;;;11.00;98.00;;;;;;5074029;28;20454;-65
2022/05/01 00:28:07;;;;;;;3.20;2.63;;;10.90;98.00;;;;;;5073544;28;20481;-65
2022/05/01 00:30:36;;;;;;;3.67;1.83;;;10.90;98.00;;;;;;5073577;28;20455;-65
2022/05/01 00:38:35;;;;;;;1.83;1.70;;;11.10;98.00;;;;;;5073493;28;20441;-65
2022/05/01 00:41:03;;;;;;;3.20;1.80;;;11.10;98.00;;;;;;5073205;28;20453;-65
2022/05/01 00:43:30;;;;;;;2.67;1.93;;;11.10;98.00;;;;;;5073238;28;20458;-65
2022/05/01 00:45:59;;;;;;;2.97;2.30;;;11.10;98.00;;;;;;5073220;28;20905;-65
2022/05/01 00:48:27;;;;;;;2.73;1.60;;;11.10;98.00;;;;;;5072383;28;20866;-65
2022/05/01 00:50:55;;;;;;;3.97;2.13;;;11.10;98.00;;;;;;5073158;28;20482;-65
2022/05/01 00:53:22;;;;;;;2.90;2.00;;;11.00;98.00;;;;;;5073216;28;20453;-65
2022/05/01 00:55:49;;;;;;;4.13;2.10;;;11.00;98.00;;;;;;5055369;28;20457;-65
2022/05/01 00:58:16;;;;;;;2.60;1.77;;;11.10;98.00;;;;;;5072888;28;20998;-65
2022/05/01 01:00:44;;;;;;;9.77;1.80;;;11.10;98.00;;;;;;5072878;28;20450;-65
2022/05/01 01:03:14;;;;;;;1.90;1.57;;;11.20;98.00;;;;;;5072718;28;20512;-65
2022/05/01 01:05:42;;;;;;;4.50;2.70;;;11.10;98.00;;;;;;5072864;28;20446;-65
2022/05/01 01:08:09;;;;;;;1.80;1.50;;;11.10;98.00;;;;;;5072571;28;20883;-65
2022/05/01 01:10:38;;;;;;;2.70;2.10;;;10.90;98.00;;;;;;5072817;28;20553;-65
2022/05/01 01:13:05;;;;;;;3.47;2.17;;;10.80;98.00;;;;;;5072836;28;20466;-65
2022/05/01 01:15:34;;;;;;;3.10;2.40;;;10.70;98.00;;;;;;5072761;28;20917;-65
2022/05/01 01:18:01;;;;;;;1.93;1.70;;;10.70;98.00;;;;;;5072649;28;20457;-65
2022/05/01 01:20:31;;;;;;;3.37;1.90;;;10.60;98.00;;;;;;5072752;28;20466;-65
2022/05/01 01:23:00;;;;;;;2.90;2.07;;;10.60;98.00;;;;;;5072762;28;20489;-65
2022/05/01 01:25:30;;;;;;;2.37;2.13;;;10.70;98.00;;;;;;5072703;28;20455;-65
2022/05/01 01:28:02;;;;;;;3.73;1.80;;;10.80;98.00;;;;;;5072652;28;20450;-65
2022/05/01 01:33:15;;;;;;;2.67;2.00;;;11.10;98.00;;;;;;5072347;28;20890;-65
2022/05/01 01:35:43;;;;;;;3.53;2.03;;;11.00;98.00;;;;;;5072242;28;20822;-65
2022/05/01 01:38:12;;;;;;;3.10;1.57;;;11.00;98.00;;;;;;5072106;28;20479;-65
2022/05/01 01:40:43;;;;;;;7.07;3.23;;;10.90;98.00;;;;;;5072285;28;20454;-65
2022/05/01 01:43:12;;;;;;;3.37;2.50;;;10.80;98.00;;;;;;5072018;28;20444;-65
2022/05/01 01:45:39;;;;;;;5.30;2.40;;;10.90;98.00;;;;;;5071961;28;20464;-65
2022/05/01 01:48:10;;;;;;;5.50;2.30;;;10.90;98.00;;;;;;5071655;28;20463;-65
2022/05/01 01:50:37;;;;;;;2.53;2.27;;;10.90;98.00;;;;;;5072095;28;20496;-65
2022/05/01 01:53:05;;;;;;;2.70;1.97;;;10.80;98.00;;;;;;5071779;28;20456;-65
2022/05/01 01:55:35;;;;;;;2.00;1.70;;;10.70;98.00;;;;;;5071956;28;20460;-65
2022/05/01 01:58:03;;;;;;;1.77;1.67;;;10.70;98.00;;;;;;5071712;28;20449;-65
2022/05/01 02:00:30;;;;;;;4.10;2.60;;;10.80;98.00;;;;;;5071017;28;20830;-65
2022/05/01 02:02:58;;;;;;;4.10;2.70;;;10.90;98.00;;;;;;5053815;28;20993;-65
2022/05/01 02:05:26;;;;;;;1.60;1.37;;;10.90;98.00;;;;;;5071679;28;20505;-65
2022/05/01 02:07:53;;;;;;;2.40;2.20;;;10.80;98.00;;;;;;5071795;28;20844;-65
2022/05/01 02:10:21;;;;;;;2.73;1.70;;;10.80;98.00;;;;;;5071554;28;20458;-65
2022/05/01 02:12:50;;;;;;;2.77;2.23;;;10.80;98.00;;;;;;5071459;28;20518;-65
2022/05/01 02:15:17;;;;;;;2.83;1.97;;;10.80;98.00;;;;;;5071624;28;20521;-65
2022/05/01 02:17:45;;;;;;;2.40;1.87;;;10.80;98.00;;;;;;5071368;28;20545;-65
2022/05/01 02:20:13;;;;;;;4.43;2.77;;;10.90;98.00;;;;;;5071517;28;20811;-65
2022/05/01 02:22:41;;;;;;;2.47;1.97;;;11.00;98.00;;;;;;5071589;28;20515;-65
2022/05/01 02:25:09;;;;;;;2.73;2.53;;;11.10;98.00;;;;;;5071495;28;20997;-65
2022/05/01 02:27:37;;;;;;;5.47;2.80;;;11.00;98.00;;;;;;5071567;28;20496;-65
2022/05/01 02:30:07;;;;;;;3.33;1.83;;;10.90;98.00;;;;;;5071639;28;20580;-65
2022/05/01 02:32:36;;;;;;;2.53;2.00;;;10.80;98.00;;;;;;5071433;28;20461;-65
2022/05/01 02:35:04;;;;;;;3.00;1.53;;;10.70;98.00;;;;;;5071409;28;20526;-65
2022/05/01 02:37:32;;;;;;;2.53;1.67;;;10.80;98.00;;;;;;5071324;28;20454;-65
2022/05/01 02:40:00;;;;;;;2.00;1.90;;;10.70;98.00;;;;;;5053449;28;20457;-65
2022/05/01 02:42:27;;;;;;;3.20;2.33;;;10.70;98.00;;;;;;5071275;28;20460;-65
2022/05/01 02:44:54;;;;;;;3.67;2.33;;;10.80;98.00;;;;;;5071209;28;20499;-65
2022/05/01 02:47:23;;;;;;;3.20;2.50;;;10.70;98.00;;;;;;5071091;28;20464;-65
2022/05/01 02:49:50;;;;;;;6.00;2.50;;;10.90;98.00;;;;;;5071122;28;20497;-65
2022/05/01 02:52:17;;;;;;;3.73;2.50;;;10.80;98.00;;;;;;5070965;28;20863;-65
2022/05/01 02:54:46;;;;;;;3.90;2.70;;;10.80;98.00;;;;;;5071321;28;20460;-65
2022/05/01 02:57:17;;;;;;;2.57;2.03;;;10.90;98.00;;;;;;5070939;28;20492;-65
2022/05/01 02:59:44;;;;;;;2.37;2.20;;;11.10;98.00;;;;;;5069219;28;20453;-65
2022/05/01 03:02:12;;;;;;;2.20;2.07;;;11.20;98.00;;;;;;5070815;28;20973;-66
2022/05/01 03:04:41;;;;;;;2.37;2.03;;;11.20;98.00;;;;;;5070983;28;20459;-65
2022/05/01 03:07:09;;;;;;;1.97;1.77;;;11.20;98.00;;;;;;5070908;28;20457;-65
2022/05/01 03:09:38;;;;;;;2.13;1.97;;;11.00;98.00;;;;;;5071225;28;20485;-65
2022/05/01 03:12:07;;;;;;;1.80;1.73;;;11.00;98.00;;;;;;5075070;28;20464;-65
2022/05/01 03:14:34;;;;;;;3.30;2.43;;;10.90;98.00;;;;;;5075188;28;20456;-65
2022/05/01 03:17:01;;;;;;;6.03;2.73;;;10.90;98.00;;;;;;5057214;28;20514;-65
2022/05/01 03:22:18;;;;;;;1.77;1.67;;;10.90;98.00;;;;;;5076311;28;20523;-65
2022/05/01 03:24:45;;;;;;;2.90;2.23;;;11.00;98.00;;;;;;5075040;28;20462;-66
2022/05/01 03:27:12;;;;;;;4.07;2.63;;;11.20;98.00;;;;;;5075802;28;20464;-65
2022/05/01 03:29:39;;;;;;;4.47;2.80;;;11.20;98.00;;;;;;5075310;28;20485;-65
2022/05/01 03:32:09;;;;;;;2.77;2.10;;;11.20;98.00;;;;;;5074786;28;20463;-65
2022/05/01 03:34:38;;;;;;;3.30;2.30;;;11.10;98.00;;;;;;5075087;28;20498;-65
2022/05/01 03:37:07;;;;;;;3.07;2.00;;;11.10;98.00;;;;;;5074718;28;20459;-65
2022/05/01 03:39:36;;;;;;;3.63;3.13;;;11.10;98.00;;;;;;5074666;28;20451;-65
2022/05/01 03:42:07;;;;;;;3.53;2.70;;;11.10;98.00;;;;;;5074694;28;20837;-65
2022/05/01 03:44:34;;;;;;;3.13;2.07;;;11.20;98.00;;;;;;5074210;28;20466;-65
2022/05/01 03:47:01;;;;;;;5.73;3.30;;;11.20;98.00;;;;;;5074358;28;20452;-65
2022/05/01 03:49:30;;;;;;;5.53;2.70;;;11.20;98.00;;;;;;5074189;28;20998;-65
2022/05/01 03:51:57;;;;;;;3.20;2.07;;;11.00;98.00;;;;;;5074315;28;20806;-65
2022/05/01 03:54:25;;;;;;;2.70;2.17;;;11.00;98.00;;;;;;5074180;28;20445;-65
2022/05/01 03:56:53;;;;;;;4.10;2.93;;;11.10;98.00;;;;;;5074116;28;20534;-65
2022/05/01 03:59:20;;;;;;;3.50;2.70;;;11.10;98.00;;;;;;5074370;28;20456;-66
2022/05/01 04:01:47;;;;;;;6.57;2.90;;;11.20;98.00;;;;;;5074080;28;20874;-66
2022/05/01 04:04:14;;;;;;;2.33;1.93;;;11.20;98.00;;;;;;5074107;28;20452;-66
2022/05/01 04:06:41;;;;;;;5.20;3.23;;;11.30;98.00;;;;;;5074017;28;20958;-65
2022/05/01 04:09:08;;;;;;;3.77;2.87;;;11.30;98.00;;;;;;5073746;28;20482;-65
2022/05/01 04:11:35;;;;;;;3.43;2.40;;;11.30;98.00;;;;;;5056423;28;20459;-66
2022/05/01 04:14:06;;;;;;;4.90;2.50;;;11.40;98.00;;;;;;5073712;28;20458;-66
2022/05/01 04:16:33;;;;;;;3.20;2.53;;;11.30;98.00;;;;;;5073902;28;20487;-65
2022/05/01 04:19:00;;;;;;;2.70;1.87;;;11.30;98.00;;;;;;5073730;28;20523;-65
2022/05/01 04:21:27;;;;;;;4.60;2.93;;;11.30;98.00;;;;;;5073672;28;20940;-65
2022/05/01 04:23:54;;;;;;;3.87;2.93;;;11.30;98.00;;;;;;5073241;28;20453;-66
2022/05/01 04:26:21;;;;;;;3.53;3.00;;;11.30;98.00;;;;;;5073702;28;20446;-66
2022/05/01 04:31:31;;;;;;;3.73;2.50;;;11.30;98.00;;;;;;5039663;28;20479;-66
2022/05/01 04:33:58;;;;;;;4.30;3.20;;;11.30;98.00;;;;;;5073995;28;20456;-66
2022/05/01 04:36:25;;;;;;;8.87;3.73;;;11.30;98.00;;;;;;5055790;28;20515;-66
2022/05/01 04:38:52;;;;;;;3.60;2.23;;;11.30;98.00;;;;;;5055910;28;20956;-66
2022/05/01 04:41:19;;;;;;;5.13;2.70;;;11.20;98.00;;;;;;5073413;28;20461;-66
2022/05/01 04:43:47;;;;;;;1.80;1.80;;;11.10;98.00;;;;;;5073271;28;20961;-65
2022/05/01 04:46:14;;;;;;;4.33;2.73;;;11.10;98.00;;;;;;5073379;28;20515;-66
2022/05/01 04:48:42;;;;;;;2.27;2.07;;;11.10;98.00;;;;;;5072927;28;20475;-66
2022/05/01 04:51:09;;;;;;;2.53;2.37;;;11.10;98.00;;;;;;5073077;28;20955;-65
2022/05/01 04:53:37;;;;;;;3.13;3.00;;;11.10;98.00;;;;;;5073217;28;20460;-66
2022/05/01 04:58:47;;;;;;;6.67;3.23;;;11.00;98.00;;;;;;5071910;28;20481;-66
2022/05/01 05:01:19;;;;;;;5.00;2.90;;;11.10;98.00;;;;;;5072925;28;20452;-66
2022/05/01 05:03:47;;;;;;;2.90;2.57;;;11.00;98.00;;;;;;5055814;28;20817;-66
2022/05/01 05:06:14;;;;;;;4.27;2.50;;;10.90;98.00;;;;;;5072724;28;20964;-66
2022/05/01 05:11:25;;;;;;;4.90;2.50;;;10.90;98.00;;;;;;5073060;28;20876;-65
2022/05/01 05:13:53;;;;;;;2.20;1.83;;;10.70;98.00;;;;;;5072701;28;20461;-65
2022/05/01 05:16:20;;;;;;;3.73;3.30;;;10.70;98.00;;;;;;5072678;28;20470;-66
2022/05/01 05:18:51;;;;;;;3.60;3.40;;;10.60;98.00;;;;;;5072675;28;20451;-66
2022/05/01 05:21:18;;;;;;;3.70;2.27;;;10.60;98.00;;;;;;5072595;28;20452;-65
2022/05/01 05:23:46;;;;;;;2.60;2.33;;;10.70;98.00;;;;;;5072602;28;20482;-65
2022/05/01 05:26:13;;;;;;;4.37;2.57;;;10.70;98.00;;;;;;5072543;28;20461;-64
2022/05/01 05:28:40;;;;;;;3.37;2.43;;;10.90;98.00;;;;;;5072333;28;20453;-65
2022/05/01 05:31:07;;;;;;;2.67;2.37;;;10.90;98.00;;;;;;5072416;28;20564;-64
2022/05/01 05:33:34;;;;;;;4.40;2.97;;;10.90;98.00;;;;;;5072498;28;20453;-65
2022/05/01 05:36:03;;;;;;;5.63;1.60;;;10.90;98.00;;;;;;5072530;28;20465;-65
2022/05/01 05:38:30;;;;;;;2.37;2.07;;;10.90;98.00;;;;;;5072330;28;20675;-65
2022/05/01 05:40:58;;;;;;;2.50;2.30;;;10.70;98.00;;;;;;5072263;28;20452;-65
2022/05/01 05:43:25;;;;;;;2.47;2.30;;;10.70;98.00;;;;;;5054563;28;20461;-65
2022/05/01 05:45:52;;;;;;;3.87;2.43;;;10.60;98.00;;;;;;5072171;28;20456;-65
2022/05/01 05:48:19;;;;;;;3.43;2.50;;;10.70;98.00;;;;;;5071944;28;20454;-65
2022/05/01 05:50:46;;;;;;;3.57;2.77;;;10.60;98.00;;;;;;5072080;28;20881;-64
2022/05/01 05:53:15;;;;;;;3.07;2.30;;;10.60;98.00;;;;;;5071885;28;20458;-65
2022/05/01 05:55:45;;;;;;;2.50;2.07;;;10.60;98.00;;;;;;5071740;28;20471;-64
2022/05/01 05:58:12;;;;;;;4.83;2.50;;;10.80;98.00;;;;;;5071709;28;20453;-65
2022/05/01 06:00:40;;;;;;;2.73;2.40;;;10.90;98.00;;;;;;5071860;28;20458;-65
2022/05/01 06:03:08;;;;;;;4.43;2.43;;;10.90;98.00;;;;;;5071817;28;20459;-65
2022/05/01 06:05:36;;;;;;;4.00;2.83;;;11.00;98.00;;;;;;5071967;28;20465;-65
2022/05/01 06:08:03;;;;;;;2.20;2.03;;;11.20;98.00;;;;;;5071596;28;20457;-64
2022/05/01 06:10:31;;;;;;;2.53;1.90;;;11.30;98.00;;;;;;5071553;28;20490;-64
2022/05/01 06:12:58;;;;;;;3.63;2.63;;;11.20;98.00;;;;;;5071347;28;20460;-64
2022/05/01 06:15:25;;;;;;;3.27;2.40;;;11.20;98.00;;;;;;5071690;28;20460;-64
2022/05/01 06:17:52;;;;;;;3.10;2.63;;;11.30;98.00;;;;;;5071569;28;20464;-64
2022/05/01 06:20:20;;;;;;;4.07;1.90;;;11.30;98.00;;;;;;5071553;28;21291;-64
2022/05/01 06:22:50;;;;;;;4.47;2.80;;;11.20;98.00;;;;;;5071372;28;20456;-64
2022/05/01 06:25:17;;;;;;;3.10;2.43;;;11.30;98.00;;;;;;5071466;28;20547;-64
2022/05/01 06:27:46;;;;;;;4.13;2.70;;;11.40;98.00;;;;;;5071263;28;20477;-64
2022/05/01 06:30:14;;;;;;;8.30;2.27;;;11.50;98.00;;;;;;5071285;28;20842;-64
2022/05/01 06:32:41;;;;;;;3.33;2.40;;;11.60;98.00;;;;;;5071483;28;20459;-64
2022/05/01 06:35:09;;;;;;;6.30;3.50;;;11.60;98.00;;;;;;5071398;28;20453;-64
2022/05/01 06:37:38;;;;;;;6.20;3.47;;;11.70;98.00;;;;;;5071424;28;20453;-64
2022/05/01 06:40:06;;;;;;;3.20;2.33;;;11.70;98.00;;;;;;5071296;28;20827;-64
2022/05/01 06:42:35;;;;;;;7.20;2.97;;;11.50;98.00;;;;;;5071153;28;20464;-64
2022/05/01 06:45:05;;;;;;;3.20;2.70;;;11.40;98.00;;;;;;5070656;28;20448;-64
2022/05/01 06:47:35;;;;;;;2.50;2.17;;;11.50;98.00;;;;;;5071169;28;20489;-64
2022/05/01 06:50:02;;;;;;;5.80;3.00;;;11.60;98.00;;;;;;5071100;28;20484;-64
2022/05/01 06:52:29;;;;;;;3.70;2.73;;;11.80;98.00;;;;;;5071142;28;20484;-64
2022/05/01 06:54:56;;;;;;;3.50;3.00;;;11.80;98.00;;;;;;5071088;28;20458;-64
2022/05/01 06:57:23;;;;;;;2.87;2.10;;;11.90;98.00;;;;;;5070924;28;20462;-61
2022/05/01 06:59:50;;;;;;;4.40;2.90;;;12.10;98.00;;;;;;5071123;28;20954;-62
2022/05/01 07:02:19;;;;;;;3.27;2.47;;;12.10;98.00;;;;;;5070935;28;20458;-62
2022/05/01 07:04:47;;;;;;;4.10;2.77;;;12.20;98.00;;;;;;5071384;28;20489;-62
2022/05/01 07:07:14;;;;;;;3.70;2.37;;;12.20;98.00;;;;;;5070338;28;20518;-62
2022/05/01 07:09:41;;;;;;;3.97;1.97;;;12.20;98.00;;;;;;5070905;28;20455;-62
2022/05/01 07:12:11;;;;;;;2.80;2.30;;;12.20;98.00;;;;;;5070903;28;20450;-63
2022/05/01 07:14:38;;;;;;;5.13;3.17;;;12.20;98.00;;;;;;5053359;28;20454;-62
2022/05/01 07:17:05;;;;;;;2.60;2.33;;;12.30;98.00;;;;;;5070955;28;20461;-62
2022/05/01 07:19:33;;;;;;;4.07;2.40;;;12.10;98.00;;;;;;5071144;28;20454;-62
2022/05/01 07:22:01;;;;;;;2.43;2.13;;;12.20;98.00;;;;;;5070845;28;20455;-62
2022/05/01 07:24:28;;;;;;;3.77;2.80;;;12.40;98.00;;;;;;5053101;28;20450;-62
2022/05/01 07:26:55;;;;;;;3.70;2.70;;;12.60;98.00;;;;;;5070894;28;20448;-62
2022/05/01 07:29:22;;;;;;;2.97;2.67;;;12.70;98.00;;;;;;5070606;28;21157;-62
2022/05/01 07:31:49;;;;;;;4.20;2.73;;;12.70;98.00;;;;;;5070718;28;20495;-62
2022/05/01 07:34:17;;;;;;;5.43;3.73;;;12.60;98.00;;;;;;5053058;28;20454;-62
2022/05/01 07:36:45;;;;;;;5.03;3.30;;;12.60;98.00;;;;;;5070880;28;20455;-62
2022/05/01 07:39:14;;;;;;;2.60;2.10;;;12.80;98.00;;;;;;5070761;28;20461;-62
2022/05/01 07:41:41;;;;;;;2.00;1.80;;;13.00;98.00;;;;;;5070802;28;20950;-62
2022/05/01 07:44:12;;;;;;;3.83;2.23;;;13.10;98.00;;;;;;5070655;28;20545;-62
2022/05/01 07:46:39;;;;;;;6.10;2.90;;;13.10;98.00;;;;;;5069874;28;20490;-62
2022/05/01 07:49:06;;;;;;;4.70;2.70;;;13.10;98.00;;;;;;5049957;28;20488;-62
2022/05/01 07:51:33;;;;;;;3.50;2.87;;;13.00;98.00;;;;;;5065880;28;20999;-62
2022/05/01 07:54:04;;;;;;;6.40;2.63;;;13.10;98.00;;;;;;5065440;28;20455;-62
2022/05/01 07:56:33;;;;;;;3.57;2.50;;;13.10;98.00;;;;;;5065938;28;20468;-62
2022/05/01 07:59:03;;;;;;;4.30;2.43;;;13.10;98.00;;;;;;5053419;28;20808;-62
2022/05/01 08:01:31;;;;;;;2.80;2.37;;;13.10;98.00;;;;;;5062881;28;20468;-62
2022/05/01 08:06:42;;;;;;;3.03;2.30;;;13.20;98.00;;;;;;5062853;28;20441;-63
2022/05/01 08:09:11;;;;;;;3.40;2.53;;;13.30;98.00;;;;;;5060784;28;20462;-63
2022/05/01 08:11:38;;;;;;;2.23;1.83;;;13.30;98.00;;;;;;5061859;28;20501;-64
2022/05/01 08:14:05;;;;;;;3.57;2.67;;;13.30;98.00;;;;;;5061296;28;20529;-64
2022/05/01 08:16:32;;;;;;;9.70;3.80;;;13.20;98.00;;;;;;5070925;28;20457;-63
2022/05/01 08:21:49;;;;;;;3.53;3.07;;;13.30;98.00;;;;;;5011512;28;20551;-62
2022/05/01 08:24:17;;;;;;;3.40;2.40;;;13.30;98.00;;;;;;5052305;28;20846;-62
2022/05/01 08:26:47;;;;;;;2.30;2.10;;;13.30;98.00;;;;;;5060923;28;20552;-62
2022/05/01 08:29:15;;;;;;;3.27;2.20;;;13.20;98.00;;;;;;5052600;28;20465;-63
2022/05/01 08:31:42;;;;;;;3.67;2.80;;;13.20;98.00;;;;;;5042034;28;21913;-63
2022/05/01 08:34:09;;;;;;;3.80;2.17;;;13.40;98.00;;;;;;5053417;28;20462;-62
2022/05/01 08:36:38;;;;;;;4.83;2.17;;;13.60;98.00;;;;;;5061203;28;20465;-62
2022/05/01 08:39:06;;;;;;;6.50;2.37;;;13.70;98.00;;;;;;5060959;28;20503;-63
2022/05/01 08:41:34;;;;;;;3.00;2.13;;;13.80;98.00;;;;;;5053465;28;20462;-63
2022/05/01 08:44:03;;;;;;;3.10;2.77;;;14.00;98.00;;;;;;5061654;28;20460;-62
2022/05/01 08:46:56;;;;;;;4.37;2.50;;;14.20;98.00;;;;;;5053560;28;20846;-63
2022/05/01 08:49:23;;;;;;;2.17;1.87;;;14.20;98.00;;;;;;5066198;28;20805;-62
2022/05/01 08:51:52;;;;;;;2.80;2.60;;;14.20;98.00;;;;;;5070024;28;20561;-62
2022/05/01 08:54:19;;;;;;;1.90;1.83;;;14.20;98.00;;;;;;5054555;28;20827;-62
2022/05/01 08:56:48;;;;;;;2.73;2.37;;;14.20;98.00;;;;;;5051875;28;20454;-63
2022/05/01 08:59:17;;;;;;;4.80;3.10;;;14.20;98.00;;;;;;5051346;28;20503;-62
2022/05/01 09:01:46;;;;;;;2.27;2.17;;;14.20;98.00;;;;;;5060874;28;20461;-64
2022/05/01 09:04:14;;;;;;;2.50;2.13;;;14.30;98.00;;;;;;5060239;28;20547;-63
2022/05/01 09:06:43;;;;;;;3.67;2.47;;;14.40;98.00;;;;;;5062092;28;20448;-63
2022/05/01 09:09:11;;;;;;;4.60;3.23;;;14.40;98.00;;;;;;5051400;28;20984;-63
2022/05/01 09:14:27;;;;;;;2.57;2.30;;;14.60;98.00;;;;;;5061443;28;20442;-63
2022/05/01 09:17:13;;;;;;;2.90;2.10;;;14.70;98.00;;;;;;5051154;28;20830;-63
2022/05/01 09:19:40;;;;;;;6.27;2.87;;;14.60;98.00;;;;;;5059882;28;20547;-63
2022/05/01 09:22:07;;;;;;;3.37;1.97;;;14.20;98.00;;;;;;5067856;28;20517;-64
2022/05/01 09:24:35;;;;;;;4.27;2.73;;;14.00;98.00;;;;;;5061626;28;20451;-65
2022/05/01 09:27:03;;;;;;;3.37;2.07;;;14.30;98.00;;;;;;5050789;28;20455;-64
2022/05/01 09:29:35;;;;;;;2.30;1.80;;;14.50;98.00;;;;;;5058996;28;20459;-64
2022/05/01 09:32:04;;;;;;;3.40;2.20;;;14.70;98.00;;;;;;5056356;28;20491;-63
2022/05/01 09:34:33;;;;;;;3.37;2.40;;;15.10;98.00;;;;;;5058511;28;20465;-64
2022/05/01 09:37:02;;;;;;;3.20;2.77;;;15.40;98.00;;;;;;5050717;28;20446;-63
2022/05/01 09:39:30;;;;;;;2.67;2.03;;;15.60;98.00;;;;;;5059758;28;20793;-62
2022/05/01 09:42:14;;;;;;;2.80;2.10;;;15.70;98.00;;;;;;5060197;28;20955;-63
2022/05/01 09:44:43;;;;;;;1.90;1.70;;;15.70;98.00;;;;;;5063383;28;20454;-63
2022/05/01 09:47:11;;;;;;;2.37;1.80;;;15.70;98.00;;;;;;5067731;28;20466;-63
2022/05/01 09:49:49;;;;;;;2.77;2.27;;;15.70;98.00;;;;;;5052413;28;20469;-63
2022/05/01 09:52:17;;;;;;;2.80;2.13;;;15.70;98.00;;;;;;5060119;28;20588;-62
2022/05/01 09:55:03;;;;;;;4.40;2.43;;;15.30;98.00;;;;;;5067544;28;20452;-63
2022/05/01 09:57:30;;;;;;;3.53;2.10;;;15.40;98.00;;;;;;5069122;28;20453;-65
2022/05/01 09:59:58;;;;;;;2.77;2.20;;;15.30;98.00;;;;;;5053082;28;21002;-62
2022/05/01 10:02:30;;;;;;;2.60;1.90;;;15.10;98.00;;;;;;5050577;28;20465;-63
2022/05/01 10:05:03;;;;;;;3.17;2.40;;;15.10;98.00;;;;;;5058371;28;20454;-63
2022/05/01 10:07:36;;;;;;;4.93;2.37;;;15.00;98.00;;;;;;5067662;28;20476;-63
2022/05/01 10:10:07;;;;;;;3.77;2.57;;;15.00;98.00;;;;;;5069020;28;20493;-63
2022/05/01 10:12:41;;;;;;;3.27;2.40;;;15.10;98.00;;;;;;5060518;28;20504;-65
2022/05/01 10:15:11;;;;;;;2.87;1.90;;;15.10;98.00;;;;;;5051321;28;20462;-64
2022/05/01 10:17:39;;;;;;;2.63;2.00;;;15.00;98.00;;;;;;5060850;28;20468;-64
2022/05/01 10:20:07;;;;;;;4.23;1.90;;;15.40;98.00;;;;;;5068765;28;21001;-65
2022/05/01 10:22:36;;;;;;;2.93;2.30;;;15.90;98.00;;;;;;5049718;28;20551;-66
2022/05/01 10:25:04;;;;;;;4.90;2.97;;;16.20;98.00;;;;;;5058029;28;20461;-65
2022/05/01 10:27:36;;;;;;;4.30;2.90;;;16.50;98.00;;;;;;5058539;28;20487;-66
2022/05/01 10:33:39;;;;;;;2.77;2.23;;;16.70;98.00;;;;;;5050098;28;20603;-66
2022/05/01 10:36:28;;;;;;;4.70;2.60;;;16.80;97.00;;;;;;4966487;28;20541;-65
2022/05/01 10:39:09;;;;;;;5.30;2.40;;;16.30;95.00;;;;;;5051488;28;20455;-64
2022/05/01 10:41:43;;;;;;;2.30;2.03;;;16.20;97.00;;;;;;5067049;28;20809;-66
2022/05/01 10:44:26;;;;;;;2.33;2.17;;;16.20;97.40;;;;;;5062765;28;20472;-64
2022/05/01 10:46:55;;;;;;;2.73;2.20;;;16.40;94.90;;;;;;5067789;28;20849;-64
2022/05/01 10:49:37;;;;;;;3.07;1.90;;;16.70;95.60;;;;;;5062414;28;20600;-63
2022/05/01 10:52:18;;;;;;;2.00;1.70;;;17.10;95.60;;;;;;5059514;28;20542;-64
2022/05/01 10:54:56;;;;;;;2.53;1.83;;;17.40;93.90;;;;;;5050669;28;20500;-65
2022/05/01 10:57:24;;;;;;;2.30;1.90;;;17.80;92.70;;;;;;5051372;28;20465;-63
2022/05/01 11:00:04;;;;;;;2.30;1.73;;;18.00;90.90;;;;;;5067622;28;20544;-63
2022/05/01 11:02:46;;;;;;;3.23;2.00;;;18.00;92.00;;;;;;5058411;28;20521;-63
2022/05/01 11:05:52;;;;;;;5.53;2.83;;;17.90;88.90;;;;;;5068631;28;20464;-64
2022/05/01 11:08:23;;;;;;;4.37;2.30;;;17.60;90.90;;;;;;5065801;28;20447;-65
2022/05/01 11:10:53;;;;;;;4.20;2.07;;;17.60;93.10;;;;;;5060662;28;20547;-65
2022/05/01 11:13:24;;;;;;;2.50;2.00;;;17.60;92.30;;;;;;5069373;28;20475;-65
2022/05/01 11:15:52;;;;;;;3.80;1.90;;;17.50;90.50;;;;;;5070979;28;20837;-64
2022/05/01 11:18:29;;;;;;;2.87;2.10;;;17.40;91.50;;;;;;5070744;28;20455;-64
2022/05/01 11:20:57;;;;;;;3.10;1.87;;;17.40;91.70;;;;;;5052791;28;20539;-64
2022/05/01 11:23:34;;;;;;;2.63;1.83;;;17.50;91.40;;;;;;5071104;28;20460;-64
2022/05/01 11:26:19;;;;;;;2.77;2.10;;;17.60;91.60;;;;;;5070860;28;20896;-64
2022/05/01 11:28:52;;;;;;;5.37;2.30;;;17.80;91.50;;;;;;5070948;28;20460;-64
2022/05/01 11:31:44;;;;;;;2.37;1.80;;;17.80;91.10;;;;;;5071722;28;20917;-64
2022/05/01 11:34:48;;;;;;;2.90;1.80;;;17.80;90.80;;;;;;5071782;28;20547;-64
2022/05/01 11:37:15;;;;;;;3.20;1.90;;;17.70;91.10;;;;;;5074529;28;20542;-64
2022/05/01 11:40:28;;;;;;;3.53;2.40;;;17.50;89.60;;;;;;5074454;28;20457;-64
2022/05/01 11:43:18;;;;;;;2.30;1.90;;;17.60;90.50;;;;;;5074513;28;20468;-64
2022/05/01 11:45:46;;;;;;;2.27;2.07;;;18.40;92.60;;;;;;5074637;28;20510;-64
2022/05/01 11:48:14;;;;;;;2.30;2.00;;;18.70;87.70;;;;;;5074335;28;20449;-64
2022/05/01 11:50:42;;;;;;;5.27;2.53;;;18.70;87.70;;;;;;5072615;28;20475;-64
2022/05/01 11:53:18;;;;;;;2.30;2.00;;;18.60;88.10;;;;;;5074227;28;20579;-64
2022/05/01 12:04:23;;;;;;;2.80;2.07;;;19.00;84.20;;;;;;5074257;28;20518;-64
2022/05/01 12:06:57;;;;;;;4.33;2.00;;;18.70;85.40;;;;;;5074281;28;20460;-64
2022/05/01 12:09:25;;;;;;;2.87;2.20;;;19.00;87.00;;;;;;5073841;28;20464;-64
2022/05/01 12:11:53;;;;;;;2.70;2.10;;;19.50;87.80;;;;;;5074591;28;20520;-63
2022/05/01 12:14:22;;;;;;;2.33;1.97;;;19.90;84.30;;;;;;5044982;28;20947;-64
2022/05/01 12:16:49;;;;;;;2.90;2.03;;;19.90;85.60;;;;;;5053318;28;20462;-64
2022/05/01 12:19:17;;;;;;;4.17;2.17;;;19.50;83.80;;;;;;5053666;28;20469;-63
2022/05/01 12:21:44;;;;;;;1.80;1.70;;;19.30;86.90;;;;;;5053861;28;20542;-63
2022/05/01 12:24:13;;;;;;;2.63;1.70;;;18.80;87.00;;;;;;5053651;28;20460;-64
2022/05/01 12:26:49;;;;;;;2.77;1.80;;;18.60;88.30;;;;;;5053827;28;20453;-62
2022/05/01 12:29:17;;;;;;;2.30;1.90;;;18.50;90.70;;;;;;5053652;28;20446;-62
2022/05/01 12:32:07;;;;;;;4.80;1.70;;;18.30;89.00;;;;;;5053501;28;20884;-62
2022/05/01 12:34:36;;;;;;;2.50;1.53;;;18.20;90.60;;;;;;5053361;28;20450;-63
2022/05/01 12:37:10;;;;;;;3.37;2.10;;;18.00;92.70;;;;;;5053392;28;20504;-63
2022/05/01 12:39:37;;;;;;;2.53;2.10;;;18.00;92.70;;;;;;5053475;28;20457;-63
2022/05/01 12:45:12;;;;;;;2.53;1.70;;;17.90;92.90;;;;;;5053021;28;20526;-63
2022/05/01 12:47:44;;;;;;;3.80;2.10;;;17.80;90.80;;;;;;5053236;28;20442;-63
2022/05/01 12:50:24;;;;;;;4.50;2.60;;;17.70;91.60;;;;;;5053221;28;20554;-63
2022/05/01 12:52:54;;;;;;;2.77;2.23;;;17.70;94.20;;;;;;5053154;28;21026;-63
2022/05/01 12:55:22;;;;;;;2.60;2.10;;;17.60;94.00;;;;;;5053118;28;20501;-63
2022/05/01 12:57:55;;;;;;;2.13;1.70;;;17.40;94.20;;;;;;5053077;28;20465;-63
2022/05/01 13:00:35;;;;;;;2.90;1.73;;;17.30;94.10;;;;;;5053344;28;20544;-63
2022/05/01 13:03:21;;;;;;;2.13;1.80;;;17.30;96.00;;;;;;5035903;28;20540;-63
2022/05/01 13:06:01;;;;;;;3.57;2.20;;;17.30;97.10;;;;;;5053203;28;20471;-63
2022/05/01 13:08:30;;;;;;;3.63;2.50;;;17.20;94.90;;;;;;5035289;28;20469;-63
2022/05/01 13:11:13;;;;;;;3.53;2.37;;;17.20;94.80;;;;;;5052908;28;20461;-63
2022/05/01 13:13:49;;;;;;;2.80;2.40;;;17.20;94.60;;;;;;5055501;28;20496;-63
2022/05/01 13:16:17;;;;;;;2.43;1.93;;;17.30;95.10;;;;;;5055006;28;20465;-63
2022/05/01 13:18:46;;;;;;;2.07;1.90;;;17.30;94.60;;;;;;5055111;28;20957;-63
2022/05/01 13:21:14;;;;;;;3.53;2.57;;;17.40;94.30;;;;;;5073008;28;20530;-63
2022/05/01 13:23:42;;;;;;;3.07;2.00;;;17.50;94.40;;;;;;5072573;28;20476;-63
2022/05/01 13:26:12;;;;;;;2.90;1.83;;;17.60;94.40;;;;;;5072600;28;20535;-63
2022/05/01 13:28:39;;;;;;;2.87;1.97;;;17.70;93.70;;;;;;5072821;28;20461;-63
2022/05/01 13:31:07;;;;;;;3.00;2.13;;;17.80;93.80;;;;;;5072378;28;20484;-63
2022/05/01 13:33:34;;;;;;;2.00;1.73;;;17.90;92.80;;;;;;5072322;28;20587;-63
2022/05/01 13:36:04;;;;;;;3.97;2.57;;;18.00;93.10;;;;;;5054410;28;20507;-64
2022/05/01 13:38:31;;;;;;;3.87;2.77;;;18.00;92.30;;;;;;5072354;28;20456;-64
2022/05/01 13:46:27;;;;;;;3.37;2.00;;;18.30;91.50;;;;;;5073098;28;20444;-64
2022/05/01 13:48:55;;;;;;;3.60;2.23;;;18.50;90.60;;;;;;5056493;28;20476;-63
2022/05/01 13:51:23;;;;;;;3.13;1.90;;;18.60;90.90;;;;;;5067871;28;20851;-62